sensor_id;sensor_type;location;lat;lon;timestamp;pressure;altitude;pressure_sealevel;temperature;humidity
84387;BME280;74580;47.078;15.446;2024-02-15T00:00:12;98114.44;;;21.48;31.10
84387;BME280;74580;47.078;15.446;2024-02-15T00:02:37;98110.59;;;21.49;30.88
84387;BME280;74580;47.078;15.446;2024-02-15T00:05:02;98112.97;;;21.50;30.94
84387;BME280;74580;47.078;15.446;2024-02-15T00:07:28;98112.19;;;21.50;31.17
84387;BME280;74580;47.078;15.446;2024-02-15T00:09:53;98116.03;;;21.49;31.04
84387;BME280;74580;47.078;15.446;2024-02-15T00:12:19;98111.38;;;21.49;31.19
84387;BME280;74580;47.078;15.446;2024-02-15T00:14:45;98120.69;;;21.48;30.89
84387;BME280;74580;47.078;15.446;2024-02-15T00:17:10;98121.13;;;21.50;30.95
84387;BME280;74580;47.078;15.446;2024-02-15T00:19:37;98119.22;;;21.51;30.94
84387;BME280;74580;47.078;15.446;2024-02-15T00:22:05;98121.94;;;21.51;30.89
84387;BME280;74580;47.078;15.446;2024-02-15T00:24:30;98120.34;;;21.50;31.18
84387;BME280;74580;47.078;15.446;2024-02-15T00:26:56;98117.28;;;21.51;31.07
84387;BME280;74580;47.078;15.446;2024-02-15T00:29:22;98112.19;;;21.50;30.89
84387;BME280;74580;47.078;15.446;2024-02-15T00:31:47;98113.78;;;21.51;30.96
84387;BME280;74580;47.078;15.446;2024-02-15T00:34:12;98108.34;;;21.51;31.13
84387;BME280;74580;47.078;15.446;2024-02-15T00:36:38;98112.63;;;21.52;30.79
84387;BME280;74580;47.078;15.446;2024-02-15T00:39:06;98120.78;;;21.52;31.01
84387;BME280;74580;47.078;15.446;2024-02-15T00:41:33;98114.56;;;21.51;31.08
84387;BME280;74580;47.078;15.446;2024-02-15T00:43:59;98114.09;;;21.49;31.00
84387;BME280;74580;47.078;15.446;2024-02-15T00:46:24;98111.84;;;21.51;30.92
84387;BME280;74580;47.078;15.446;2024-02-15T00:48:52;98108.34;;;21.51;30.96
84387;BME280;74580;47.078;15.446;2024-02-15T00:51:17;98114.56;;;21.51;30.99
84387;BME280;74580;47.078;15.446;2024-02-15T00:53:43;98116.50;;;21.51;31.19
84387;BME280;74580;47.078;15.446;2024-02-15T00:56:08;98107.88;;;21.49;31.00
84387;BME280;74580;47.078;15.446;2024-02-15T00:58:33;98118.41;;;21.50;31.03
84387;BME280;74580;47.078;15.446;2024-02-15T01:00:59;98124.66;;;21.51;30.75
84387;BME280;74580;47.078;15.446;2024-02-15T01:03:24;98120.34;;;21.50;31.13
84387;BME280;74580;47.078;15.446;2024-02-15T01:05:51;98126.56;;;21.50;31.03
84387;BME280;74580;47.078;15.446;2024-02-15T01:08:16;98122.25;;;21.49;31.06
84387;BME280;74580;47.078;15.446;2024-02-15T01:10:42;98123.41;;;21.48;31.00
84387;BME280;74580;47.078;15.446;2024-02-15T01:13:07;98118.41;;;21.50;31.00
84387;BME280;74580;47.078;15.446;2024-02-15T01:15:34;98118.41;;;21.50;31.02
84387;BME280;74580;47.078;15.446;2024-02-15T01:17:59;98119.22;;;21.51;30.98
84387;BME280;74580;47.078;15.446;2024-02-15T01:20:24;98115.69;;;21.50;31.09
84387;BME280;74580;47.078;15.446;2024-02-15T01:22:50;98121.47;;;21.49;30.93
84387;BME280;74580;47.078;15.446;2024-02-15T01:25:16;98120.34;;;21.50;30.92
84387;BME280;74580;47.078;15.446;2024-02-15T01:27:42;98115.25;;;21.48;31.20
84387;BME280;74580;47.078;15.446;2024-02-15T01:30:08;98116.03;;;21.49;31.04
84387;BME280;74580;47.078;15.446;2024-02-15T01:32:35;98110.59;;;21.49;31.08
84387;BME280;74580;47.078;15.446;2024-02-15T01:35:00;98116.03;;;21.49;31.11
84387;BME280;74580;47.078;15.446;2024-02-15T01:37:26;98114.44;;;21.48;30.84
84387;BME280;74580;47.078;15.446;2024-02-15T01:39:51;98116.81;;;21.49;30.89
84387;BME280;74580;47.078;15.446;2024-02-15T01:42:17;98109.00;;;21.48;30.98
84387;BME280;74580;47.078;15.446;2024-02-15T01:44:46;98109.00;;;21.48;30.87
84387;BME280;74580;47.078;15.446;2024-02-15T01:47:16;98110.59;;;21.49;30.98
84387;BME280;74580;47.078;15.446;2024-02-15T01:49:42;98091.56;;;21.49;31.03
84387;BME280;74580;47.078;15.446;2024-02-15T01:52:09;98089.63;;;21.49;30.80
84387;BME280;74580;47.078;15.446;2024-02-15T01:54:35;98092.34;;;21.49;31.07
84387;BME280;74580;47.078;15.446;2024-02-15T01:57:01;98088.84;;;21.49;30.96
84387;BME280;74580;47.078;15.446;2024-02-15T01:59:28;98089.63;;;21.49;31.03
84387;BME280;74580;47.078;15.446;2024-02-15T02:01:53;98085.78;;;21.50;30.96
84387;BME280;74580;47.078;15.446;2024-02-15T02:04:19;98086.59;;;21.51;30.87
84387;BME280;74580;47.078;15.446;2024-02-15T02:06:44;98089.31;;;21.51;31.03
84387;BME280;74580;47.078;15.446;2024-02-15T02:09:11;98085.78;;;21.50;31.10
84387;BME280;74580;47.078;15.446;2024-02-15T02:11:38;98091.56;;;21.49;31.03
84387;BME280;74580;47.078;15.446;2024-02-15T02:14:03;98090.44;;;21.50;31.16
84387;BME280;74580;47.078;15.446;2024-02-15T02:16:30;98085.78;;;21.50;30.78
84387;BME280;74580;47.078;15.446;2024-02-15T02:19:01;98080.69;;;21.49;30.88
84387;BME280;74580;47.078;15.446;2024-02-15T02:21:27;98081.81;;;21.48;31.00
84387;BME280;74580;47.078;15.446;2024-02-15T02:23:56;98085.78;;;21.50;30.92
84387;BME280;74580;47.078;15.446;2024-02-15T02:26:23;98072.53;;;21.49;30.95
84387;BME280;74580;47.078;15.446;2024-02-15T02:28:49;98083.41;;;21.49;31.00
84387;BME280;74580;47.078;15.446;2024-02-15T02:31:15;98085.00;;;21.50;30.74
84387;BME280;74580;47.078;15.446;2024-02-15T02:33:49;98088.50;;;21.50;31.08
84387;BME280;74580;47.078;15.446;2024-02-15T02:36:17;98088.84;;;21.49;30.98
84387;BME280;74580;47.078;15.446;2024-02-15T02:38:42;98090.78;;;21.48;31.10
84387;BME280;74580;47.078;15.446;2024-02-15T02:41:10;98088.06;;;21.48;31.06
84387;BME280;74580;47.078;15.446;2024-02-15T02:43:36;98087.25;;;21.48;31.05
84387;BME280;74580;47.078;15.446;2024-02-15T02:46:02;98086.13;;;21.49;31.04
84387;BME280;74580;47.078;15.446;2024-02-15T02:48:31;98083.06;;;21.50;31.09
84387;BME280;74580;47.078;15.446;2024-02-15T02:50:56;98076.84;;;21.50;30.97
84387;BME280;74580;47.078;15.446;2024-02-15T02:53:23;98080.69;;;21.49;31.08
84387;BME280;74580;47.078;15.446;2024-02-15T02:55:48;98076.03;;;21.49;30.98
84387;BME280;74580;47.078;15.446;2024-02-15T02:58:13;98071.75;;;21.48;31.15
84387;BME280;74580;47.078;15.446;2024-02-15T03:00:39;98070.94;;;21.48;30.93
84387;BME280;74580;47.078;15.446;2024-02-15T03:03:05;98069.81;;;21.49;30.94
84387;BME280;74580;47.078;15.446;2024-02-15T03:05:30;98069.81;;;21.49;30.95
84387;BME280;74580;47.078;15.446;2024-02-15T03:07:56;98074.91;;;21.50;31.04
84387;BME280;74580;47.078;15.446;2024-02-15T03:10:22;98075.25;;;21.49;30.80
84387;BME280;74580;47.078;15.446;2024-02-15T03:12:47;98069.81;;;21.49;31.06
84387;BME280;74580;47.078;15.446;2024-02-15T03:15:13;98074.13;;;21.50;31.11
84387;BME280;74580;47.078;15.446;2024-02-15T03:17:43;98067.09;;;21.49;30.77
84387;BME280;74580;47.078;15.446;2024-02-15T03:20:10;98069.03;;;21.48;30.76
84387;BME280;74580;47.078;15.446;2024-02-15T03:22:38;98071.75;;;21.48;30.96
84387;BME280;74580;47.078;15.446;2024-02-15T03:25:07;98070.94;;;21.48;31.13
84387;BME280;74580;47.078;15.446;2024-02-15T03:27:36;98070.19;;;21.47;30.88
84387;BME280;74580;47.078;15.446;2024-02-15T03:30:03;98076.38;;;21.48;31.32
84387;BME280;74580;47.078;15.446;2024-02-15T03:32:29;98070.94;;;21.48;31.05
84387;BME280;74580;47.078;15.446;2024-02-15T03:34:55;98060.88;;;21.48;30.92
84387;BME280;74580;47.078;15.446;2024-02-15T03:37:20;98064.38;;;21.49;31.11
84387;BME280;74580;47.078;15.446;2024-02-15T03:39:46;98065.50;;;21.48;31.08
84387;BME280;74580;47.078;15.446;2024-02-15T03:42:12;98061.66;;;21.49;31.11
84387;BME280;74580;47.078;15.446;2024-02-15T03:44:37;98052.72;;;21.48;30.98
84387;BME280;74580;47.078;15.446;2024-02-15T03:47:04;98055.44;;;21.48;31.28
84387;BME280;74580;47.078;15.446;2024-02-15T03:49:30;98053.50;;;21.49;31.01
84387;BME280;74580;47.078;15.446;2024-02-15T03:51:57;98051.91;;;21.48;30.95
84387;BME280;74580;47.078;15.446;2024-02-15T03:54:27;98055.44;;;21.48;30.87
84387;BME280;74580;47.078;15.446;2024-02-15T03:56:55;98055.88;;;21.50;31.05
84387;BME280;74580;47.078;15.446;2024-02-15T03:59:22;98058.16;;;21.48;31.08
84387;BME280;74580;47.078;15.446;2024-02-15T04:01:52;98054.31;;;21.49;30.90
84387;BME280;74580;47.078;15.446;2024-02-15T04:04:18;98056.22;;;21.49;30.77
84387;BME280;74580;47.078;15.446;2024-02-15T04:06:43;98058.94;;;21.49;30.72
84387;BME280;74580;47.078;15.446;2024-02-15T04:09:08;98059.72;;;21.49;30.94
84387;BME280;74580;47.078;15.446;2024-02-15T04:11:36;98058.94;;;21.49;31.03
84387;BME280;74580;47.078;15.446;2024-02-15T04:14:03;98065.50;;;21.48;31.01
84387;BME280;74580;47.078;15.446;2024-02-15T04:16:28;98065.19;;;21.49;30.90
84387;BME280;74580;47.078;15.446;2024-02-15T04:18:55;98072.53;;;21.49;30.86
84387;BME280;74580;47.078;15.446;2024-02-15T04:21:22;98065.50;;;21.48;30.92
84387;BME280;74580;47.078;15.446;2024-02-15T04:23:48;98070.94;;;21.48;30.89
84387;BME280;74580;47.078;15.446;2024-02-15T04:26:13;98062.78;;;21.48;31.09
84387;BME280;74580;47.078;15.446;2024-02-15T04:28:40;98055.44;;;21.48;31.05
84387;BME280;74580;47.078;15.446;2024-02-15T04:31:06;98060.06;;;21.48;30.99
84387;BME280;74580;47.078;15.446;2024-02-15T04:33:34;98057.03;;;21.49;31.09
84387;BME280;74580;47.078;15.446;2024-02-15T04:35:59;98063.59;;;21.48;31.14
84387;BME280;74580;47.078;15.446;2024-02-15T04:38:28;98067.09;;;21.49;30.93
84387;BME280;74580;47.078;15.446;2024-02-15T04:40:54;98060.06;;;21.48;30.98
84387;BME280;74580;47.078;15.446;2024-02-15T04:43:19;98066.31;;;21.48;31.15
84387;BME280;74580;47.078;15.446;2024-02-15T04:45:45;98068.56;;;21.46;30.83
84387;BME280;74580;47.078;15.446;2024-02-15T04:48:11;98067.47;;;21.47;31.15
84387;BME280;74580;47.078;15.446;2024-02-15T04:50:39;98055.44;;;21.48;31.07
84387;BME280;74580;47.078;15.446;2024-02-15T04:53:07;98053.50;;;21.49;31.11
84387;BME280;74580;47.078;15.446;2024-02-15T04:55:33;98062.78;;;21.48;30.86
84387;BME280;74580;47.078;15.446;2024-02-15T04:57:58;98070.94;;;21.48;31.04
84387;BME280;74580;47.078;15.446;2024-02-15T05:00:25;98069.38;;;21.47;31.05
84387;BME280;74580;47.078;15.446;2024-02-15T05:02:50;98078.31;;;21.47;30.84
84387;BME280;74580;47.078;15.446;2024-02-15T05:05:16;98069.81;;;21.49;31.04
84387;BME280;74580;47.078;15.446;2024-02-15T05:07:42;98079.09;;;21.48;30.79
84387;BME280;74580;47.078;15.446;2024-02-15T05:10:08;98074.47;;;21.48;30.82
84387;BME280;74580;47.078;15.446;2024-02-15T05:12:35;98075.25;;;21.49;31.03
84387;BME280;74580;47.078;15.446;2024-02-15T05:15:01;98075.25;;;21.49;30.93
84387;BME280;74580;47.078;15.446;2024-02-15T05:17:27;98071.75;;;21.48;30.97
84387;BME280;74580;47.078;15.446;2024-02-15T05:19:55;98069.03;;;21.48;30.92
84387;BME280;74580;47.078;15.446;2024-02-15T05:22:25;98064.75;;;21.47;31.08
84387;BME280;74580;47.078;15.446;2024-02-15T05:24:54;98070.94;;;21.48;31.17
84387;BME280;74580;47.078;15.446;2024-02-15T05:27:20;98070.19;;;21.47;30.89
84387;BME280;74580;47.078;15.446;2024-02-15T05:29:45;98070.19;;;21.47;30.99
84387;BME280;74580;47.078;15.446;2024-02-15T05:32:10;98068.22;;;21.48;31.17
84387;BME280;74580;47.078;15.446;2024-02-15T05:34:36;98065.50;;;21.48;31.07
84387;BME280;74580;47.078;15.446;2024-02-15T05:37:05;98065.50;;;21.48;30.92
84387;BME280;74580;47.078;15.446;2024-02-15T05:39:32;98062.34;;;21.46;30.88
84387;BME280;74580;47.078;15.446;2024-02-15T05:41:57;98068.91;;;21.45;30.78
84387;BME280;74580;47.078;15.446;2024-02-15T05:44:25;98054.53;;;21.44;30.92
84387;BME280;74580;47.078;15.446;2024-02-15T05:46:51;98057.69;;;21.46;31.05
84387;BME280;74580;47.078;15.446;2024-02-15T05:49:16;98058.50;;;21.47;31.00
84387;BME280;74580;47.078;15.446;2024-02-15T05:51:43;98064.38;;;21.49;31.29
84387;BME280;74580;47.078;15.446;2024-02-15T05:54:09;98071.06;;;21.51;31.38
84387;BME280;74580;47.078;15.446;2024-02-15T05:56:34;98068.00;;;21.53;31.42
84387;BME280;74580;47.078;15.446;2024-02-15T05:59:00;98074.22;;;21.53;31.39
84387;BME280;74580;47.078;15.446;2024-02-15T06:01:27;98080.91;;;21.56;31.38
84387;BME280;74580;47.078;15.446;2024-02-15T06:03:54;98086.00;;;21.57;31.46
84387;BME280;74580;47.078;15.446;2024-02-15T06:06:21;98070.50;;;21.58;31.57
84387;BME280;74580;47.078;15.446;2024-02-15T06:08:47;98079.09;;;21.60;31.44
84387;BME280;74580;47.078;15.446;2024-02-15T06:11:13;98080.81;;;21.52;30.29
84387;BME280;74580;47.078;15.446;2024-02-15T06:13:39;98075.63;;;20.79;29.51
84387;BME280;74580;47.078;15.446;2024-02-15T06:16:05;98083.34;;;20.44;29.51
84387;BME280;74580;47.078;15.446;2024-02-15T06:18:34;98080.59;;;20.65;30.10
84387;BME280;74580;47.078;15.446;2024-02-15T06:20:59;98085.44;;;21.04;30.29
84387;BME280;74580;47.078;15.446;2024-02-15T06:23:26;98093.84;;;21.23;29.82
84387;BME280;74580;47.078;15.446;2024-02-15T06:25:54;98089.75;;;21.29;30.00
84387;BME280;74580;47.078;15.446;2024-02-15T06:28:22;98092.25;;;21.34;29.89
84387;BME280;74580;47.078;15.446;2024-02-15T06:31:10;98094.75;;;21.39;30.16
84387;BME280;74580;47.078;15.446;2024-02-15T06:33:54;98099.16;;;21.43;30.36
84387;BME280;74580;47.078;15.446;2024-02-15T06:36:49;98103.91;;;21.46;30.14
84387;BME280;74580;47.078;15.446;2024-02-15T06:39:34;98093.94;;;21.50;30.56
84387;BME280;74580;47.078;15.446;2024-02-15T06:42:11;98099.84;;;21.52;30.58
84387;BME280;74580;47.078;15.446;2024-02-15T06:44:39;98099.50;;;21.54;30.28
84387;BME280;74580;47.078;15.446;2024-02-15T06:47:05;98098.81;;;21.57;30.29
84387;BME280;74580;47.078;15.446;2024-02-15T06:49:32;98105.84;;;21.58;30.67
84387;BME280;74580;47.078;15.446;2024-02-15T06:51:58;98106.28;;;21.60;30.66
84387;BME280;74580;47.078;15.446;2024-02-15T06:54:24;98124.19;;;21.61;30.78
84387;BME280;74580;47.078;15.446;2024-02-15T06:56:49;98122.25;;;21.61;30.77
84387;BME280;74580;47.078;15.446;2024-02-15T06:59:17;98114.91;;;21.62;30.83
84387;BME280;74580;47.078;15.446;2024-02-15T07:01:43;98108.78;;;21.41;30.05
84387;BME280;74580;47.078;15.446;2024-02-15T07:04:10;98109.91;;;21.52;30.47
84387;BME280;74580;47.078;15.446;2024-02-15T07:06:38;98113.09;;;21.54;30.22
84387;BME280;74580;47.078;15.446;2024-02-15T07:09:05;98106.97;;;21.57;30.41
84387;BME280;74580;47.078;15.446;2024-02-15T07:11:34;98109.00;;;21.60;30.22
84387;BME280;74580;47.078;15.446;2024-02-15T07:14:02;98114.56;;;21.63;30.59
84387;BME280;74580;47.078;15.446;2024-02-15T07:16:30;98112.63;;;21.64;30.59
84387;BME280;74580;47.078;15.446;2024-02-15T07:18:55;98120.78;;;21.64;30.50
84387;BME280;74580;47.078;15.446;2024-02-15T07:21:21;98116.59;;;21.66;30.50
84387;BME280;74580;47.078;15.446;2024-02-15T07:23:51;98116.59;;;21.66;30.67
84387;BME280;74580;47.078;15.446;2024-02-15T07:26:17;98118.97;;;21.68;31.23
84387;BME280;74580;47.078;15.446;2024-02-15T07:28:45;98120.91;;;21.67;30.82
84387;BME280;74580;47.078;15.446;2024-02-15T07:31:11;98118.63;;;21.69;30.87
84387;BME280;74580;47.078;15.446;2024-02-15T07:33:37;98120.25;;;21.70;30.86
84387;BME280;74580;47.078;15.446;2024-02-15T07:36:04;98123.75;;;21.71;30.76
84387;BME280;74580;47.078;15.446;2024-02-15T07:38:29;98117.50;;;21.70;30.92
84387;BME280;74580;47.078;15.446;2024-02-15T07:40:59;98111.28;;;21.70;31.05
84387;BME280;74580;47.078;15.446;2024-02-15T07:43:25;98099.03;;;21.40;29.54
84387;BME280;74580;47.078;15.446;2024-02-15T07:45:51;98103.00;;;21.54;30.58
84387;BME280;74580;47.078;15.446;2024-02-15T07:48:17;98100.75;;;21.56;30.33
84387;BME280;74580;47.078;15.446;2024-02-15T07:50:43;98101.19;;;21.58;30.42
84387;BME280;74580;47.078;15.446;2024-02-15T07:53:10;98095.88;;;21.62;30.51
84387;BME280;74580;47.078;15.446;2024-02-15T07:55:36;98094.50;;;21.68;30.30
84387;BME280;74580;47.078;15.446;2024-02-15T07:58:03;98081.81;;;21.72;30.47
84387;BME280;74580;47.078;15.446;2024-02-15T08:00:28;98087.91;;;21.69;30.57
84387;BME280;74580;47.078;15.446;2024-02-15T08:02:55;98082.84;;;21.67;30.71
84387;BME280;74580;47.078;15.446;2024-02-15T08:05:22;98083.28;;;21.69;30.80
84387;BME280;74580;47.078;15.446;2024-02-15T08:07:47;98084.88;;;21.70;30.66
84387;BME280;74580;47.078;15.446;2024-02-15T08:10:13;98088.41;;;21.71;30.64
84387;BME280;74580;47.078;15.446;2024-02-15T08:12:45;98093.50;;;21.72;30.87
84387;BME280;74580;47.078;15.446;2024-02-15T08:15:12;98093.16;;;21.74;30.83
84387;BME280;74580;47.078;15.446;2024-02-15T08:17:41;98088.06;;;21.72;30.92
84387;BME280;74580;47.078;15.446;2024-02-15T08:20:09;98092.38;;;21.73;31.16
84387;BME280;74580;47.078;15.446;2024-02-15T08:22:35;98083.88;;;21.75;31.19
84387;BME280;74580;47.078;15.446;2024-02-15T08:25:06;98073.00;;;21.75;31.24
84387;BME280;74580;47.078;15.446;2024-02-15T08:27:31;98085.44;;;21.76;31.28
84387;BME280;74580;47.078;15.446;2024-02-15T08:29:57;98094.06;;;21.78;31.17
84387;BME280;74580;47.078;15.446;2024-02-15T08:32:23;98091.34;;;21.78;31.04
84387;BME280;74580;47.078;15.446;2024-02-15T08:34:49;98082.38;;;21.77;31.12
84387;BME280;74580;47.078;15.446;2024-02-15T08:37:15;98080.91;;;21.80;31.58
84387;BME280;74580;47.078;15.446;2024-02-15T08:39:40;98085.53;;;21.79;31.44
84387;BME280;74580;47.078;15.446;2024-02-15T08:42:06;98091.78;;;21.80;31.33
84387;BME280;74580;47.078;15.446;2024-02-15T08:44:31;98083.63;;;21.80;31.39
84387;BME280;74580;47.078;15.446;2024-02-15T08:46:56;98083.28;;;21.81;31.56
84387;BME280;74580;47.078;15.446;2024-02-15T08:49:22;98087.59;;;21.82;31.39
84387;BME280;74580;47.078;15.446;2024-02-15T08:51:47;98091.09;;;21.83;31.49
84387;BME280;74580;47.078;15.446;2024-02-15T08:54:12;98084.53;;;21.84;31.60
84387;BME280;74580;47.078;15.446;2024-02-15T08:56:38;98079.09;;;21.84;31.51
84387;BME280;74580;47.078;15.446;2024-02-15T08:59:03;98076.81;;;21.86;31.42
84387;BME280;74580;47.078;15.446;2024-02-15T09:01:28;98076.03;;;21.85;31.63
84387;BME280;74580;47.078;15.446;2024-02-15T09:03:55;98077.59;;;21.86;31.67
84387;BME280;74580;47.078;15.446;2024-02-15T09:06:20;98078.75;;;21.85;31.81
84387;BME280;74580;47.078;15.446;2024-02-15T09:08:48;98078.41;;;21.87;31.79
84387;BME280;74580;47.078;15.446;2024-02-15T09:11:13;98076.81;;;21.86;31.57
84387;BME280;74580;47.078;15.446;2024-02-15T09:13:39;98074.09;;;21.86;31.71
84387;BME280;74580;47.078;15.446;2024-02-15T09:16:05;98074.88;;;21.86;31.89
84387;BME280;74580;47.078;15.446;2024-02-15T09:18:30;98069.91;;;21.88;31.94
84387;BME280;74580;47.078;15.446;2024-02-15T09:20:55;98070.69;;;21.77;30.31
84387;BME280;74580;47.078;15.446;2024-02-15T09:23:21;98061.44;;;21.54;30.73
84387;BME280;74580;47.078;15.446;2024-02-15T09:25:49;98070.47;;;21.70;31.44
84387;BME280;74580;47.078;15.446;2024-02-15T09:28:17;98068.22;;;21.72;31.26
84387;BME280;74580;47.078;15.446;2024-02-15T09:30:47;98080.34;;;21.74;31.29
84387;BME280;74580;47.078;15.446;2024-02-15T09:33:13;98073.41;;;21.77;31.02
84387;BME280;74580;47.078;15.446;2024-02-15T09:35:38;98075.47;;;21.80;31.21
84387;BME280;74580;47.078;15.446;2024-02-15T09:38:03;98070.50;;;21.82;31.42
84387;BME280;74580;47.078;15.446;2024-02-15T09:40:31;98069.69;;;21.81;31.32
84387;BME280;74580;47.078;15.446;2024-02-15T09:42:57;98070.91;;;21.84;31.22
84387;BME280;74580;47.078;15.446;2024-02-15T09:45:22;98063.22;;;21.86;31.15
84387;BME280;74580;47.078;15.446;2024-02-15T09:47:50;98066.72;;;21.86;31.35
84387;BME280;74580;47.078;15.446;2024-02-15T09:50:16;98065.56;;;21.87;31.59
84387;BME280;74580;47.078;15.446;2024-02-15T09:52:50;98063.66;;;21.88;31.42
84387;BME280;74580;47.078;15.446;2024-02-15T09:55:17;98065.22;;;21.89;31.49
84387;BME280;74580;47.078;15.446;2024-02-15T09:57:44;98065.22;;;21.89;31.64
84387;BME280;74580;47.078;15.446;2024-02-15T10:00:10;98061.41;;;21.90;31.74
84387;BME280;74580;47.078;15.446;2024-02-15T10:02:41;98059.13;;;21.92;31.57
84387;BME280;74580;47.078;15.446;2024-02-15T10:05:10;98054.47;;;21.92;31.55
84387;BME280;74580;47.078;15.446;2024-02-15T10:07:38;98057.97;;;21.93;31.81
84387;BME280;74580;47.078;15.446;2024-02-15T10:10:20;98056.06;;;21.93;31.80
84387;BME280;74580;47.078;15.446;2024-02-15T10:12:47;98056.84;;;21.94;31.72
84387;BME280;74580;47.078;15.446;2024-02-15T10:17:57;98043.69;;;21.96;31.75
84387;BME280;74580;47.078;15.446;2024-02-15T10:20:24;98032.00;;;21.95;31.95
84387;BME280;74580;47.078;15.446;2024-02-15T10:23:09;98032.81;;;21.96;32.14
84387;BME280;74580;47.078;15.446;2024-02-15T10:25:35;98039.03;;;21.96;31.73
84387;BME280;74580;47.078;15.446;2024-02-15T10:28:05;98041.44;;;21.98;31.80
84387;BME280;74580;47.078;15.446;2024-02-15T10:30:38;98037.91;;;21.97;32.14
84387;BME280;74580;47.078;15.446;2024-02-15T10:33:04;98034.84;;;21.99;31.94
84387;BME280;74580;47.078;15.446;2024-02-15T10:35:31;98032.38;;;21.94;31.00
84387;BME280;74580;47.078;15.446;2024-02-15T10:38:09;98034.31;;;21.81;31.38
84387;BME280;74580;47.078;15.446;2024-02-15T10:40:40;98032.84;;;21.84;31.58
84387;BME280;74580;47.078;15.446;2024-02-15T10:43:09;98030.13;;;21.84;31.66
84387;BME280;74580;47.078;15.446;2024-02-15T10:45:39;98040.31;;;21.87;31.68
84387;BME280;74580;47.078;15.446;2024-02-15T10:48:11;98034.53;;;21.88;31.56
84387;BME280;74580;47.078;15.446;2024-02-15T10:50:41;98024.09;;;21.90;31.64
84387;BME280;74580;47.078;15.446;2024-02-15T10:53:22;98024.91;;;21.91;31.67
84387;BME280;74580;47.078;15.446;2024-02-15T10:56:17;98025.66;;;21.91;31.74
84387;BME280;74580;47.078;15.446;2024-02-15T10:58:50;98012.09;;;21.79;31.17
84387;BME280;74580;47.078;15.446;2024-02-15T11:01:21;98017.75;;;21.86;31.57
84387;BME280;74580;47.078;15.446;2024-02-15T11:03:51;98016.97;;;21.86;31.45
84387;BME280;74580;47.078;15.446;2024-02-15T11:06:21;98011.53;;;21.86;31.57
84387;BME280;74580;47.078;15.446;2024-02-15T11:08:49;98004.63;;;21.88;31.70
84387;BME280;74580;47.078;15.446;2024-02-15T11:11:15;98008.09;;;21.89;31.87
84387;BME280;74580;47.078;15.446;2024-02-15T11:13:41;97994.97;;;21.91;31.65
84387;BME280;74580;47.078;15.446;2024-02-15T11:16:09;97997.34;;;21.92;31.70
84387;BME280;74580;47.078;15.446;2024-02-15T11:18:48;97988.84;;;21.94;31.66
84387;BME280;74580;47.078;15.446;2024-02-15T11:21:17;97993.47;;;21.93;31.65
84387;BME280;74580;47.078;15.446;2024-02-15T11:23:43;97994.28;;;21.94;31.70
84387;BME280;74580;47.078;15.446;2024-02-15T11:26:42;97988.72;;;21.90;31.72
84387;BME280;74580;47.078;15.446;2024-02-15T11:28:55;97982.84;;;21.88;31.98
84387;BME280;74580;47.078;15.446;2024-02-15T11:31:53;97978.19;;;21.89;31.70
84387;BME280;74580;47.078;15.446;2024-02-15T11:34:44;97986.69;;;21.87;31.88
84387;BME280;74580;47.078;15.446;2024-02-15T11:43:01;97981.16;;;21.84;32.05
84387;BME280;74580;47.078;15.446;2024-02-15T11:45:29;97976.88;;;21.83;31.66
84387;BME280;74580;47.078;15.446;2024-02-15T11:47:59;97976.53;;;21.84;31.99
84387;BME280;74580;47.078;15.446;2024-02-15T11:50:27;97973.81;;;21.84;31.99
84387;BME280;74580;47.078;15.446;2024-02-15T11:53:01;97966.75;;;21.83;31.92
84387;BME280;74580;47.078;15.446;2024-02-15T11:55:31;97968.72;;;21.83;32.16
84387;BME280;74580;47.078;15.446;2024-02-15T11:57:59;97968.25;;;21.81;31.89
84387;BME280;74580;47.078;15.446;2024-02-15T12:00:31;97970.19;;;21.80;31.80
84387;BME280;74580;47.078;15.446;2024-02-15T12:03:16;97970.97;;;21.81;32.10
84387;BME280;74580;47.078;15.446;2024-02-15T12:06:00;97969.84;;;21.82;32.06
84387;BME280;74580;47.078;15.446;2024-02-15T12:08:48;97964.75;;;21.80;32.04
84387;BME280;74580;47.078;15.446;2024-02-15T12:11:32;97959.31;;;21.80;32.00
84387;BME280;74580;47.078;15.446;2024-02-15T12:14:17;97955.44;;;21.81;32.11
84387;BME280;74580;47.078;15.446;2024-02-15T12:17:02;97955.88;;;21.83;32.15
84387;BME280;74580;47.078;15.446;2024-02-15T12:19:48;97956.00;;;21.87;32.20
84387;BME280;74580;47.078;15.446;2024-02-15T12:22:39;97954.84;;;21.88;32.11
84387;BME280;74580;47.078;15.446;2024-02-15T12:25:06;97949.50;;;21.91;32.31
84387;BME280;74580;47.078;15.446;2024-02-15T12:27:41;97960.84;;;21.93;32.19
84387;BME280;74580;47.078;15.446;2024-02-15T12:30:13;97958.91;;;21.94;32.06
84387;BME280;74580;47.078;15.446;2024-02-15T12:32:39;97957.78;;;21.95;32.45
84387;BME280;74580;47.078;15.446;2024-02-15T12:35:12;97953.91;;;21.96;32.32
84387;BME280;74580;47.078;15.446;2024-02-15T12:37:49;97941.88;;;21.97;32.34
84387;BME280;74580;47.078;15.446;2024-02-15T12:40:34;97944.25;;;21.98;32.42
84387;BME280;74580;47.078;15.446;2024-02-15T12:43:00;97938.47;;;22.00;32.37
84387;BME280;74580;47.078;15.446;2024-02-15T12:45:27;97931.88;;;22.01;32.36
84387;BME280;74580;47.078;15.446;2024-02-15T12:47:55;97927.25;;;22.01;32.45
84387;BME280;74580;47.078;15.446;2024-02-15T12:50:28;97931.53;;;22.02;32.55
84387;BME280;74580;47.078;15.446;2024-02-15T12:52:54;97920.31;;;22.04;32.66
84387;BME280;74580;47.078;15.446;2024-02-15T12:55:30;97921.88;;;22.05;32.42
84387;BME280;74580;47.078;15.446;2024-02-15T12:58:06;97913.72;;;22.05;32.71
84387;BME280;74580;47.078;15.446;2024-02-15T13:00:36;97916.09;;;22.06;32.72
84387;BME280;74580;47.078;15.446;2024-02-15T13:03:04;97909.50;;;22.07;32.73